sensor_id;sensor_type;location;lat;lon;timestamp;P1;durP1;ratioP1;P2;durP2;ratioP2
8060;SDS011;4073;42.626;25.386;2022-08-21T00:00:45;11.13;;;8.87;;
8060;SDS011;4073;42.626;25.386;2022-08-21T00:03:11;11.37;;;9.43;;
8060;SDS011;4073;42.626;25.386;2022-08-21T00:05:39;14.97;;;9.77;;
8060;SDS011;4073;42.626;25.386;2022-08-21T00:08:08;13.37;;;10.13;;
8060;SDS011;4073;42.626;25.386;2022-08-21T00:10:33;13.53;;;11.87;;
8060;SDS011;4073;42.626;25.386;2022-08-21T00:13:00;13.97;;;10.33;;
8060;SDS011;4073;42.626;25.386;2022-08-21T00:15:28;14.13;;;11.40;;
8060;SDS011;4073;42.626;25.386;2022-08-21T00:17:55;15.50;;;11.23;;
8060;SDS011;4073;42.626;25.386;2022-08-21T00:20:22;14.60;;;11.80;;
8060;SDS011;4073;42.626;25.386;2022-08-21T00:22:48;13.63;;;10.43;;
8060;SDS011;4073;42.626;25.386;2022-08-21T00:25:14;11.67;;;9.80;;
8060;SDS011;4073;42.626;25.386;2022-08-21T00:27:41;14.80;;;11.00;;
8060;SDS011;4073;42.626;25.386;2022-08-21T00:30:07;12.17;;;10.70;;
8060;SDS011;4073;42.626;25.386;2022-08-21T00:32:36;10.97;;;9.80;;
8060;SDS011;4073;42.626;25.386;2022-08-21T00:35:03;15.60;;;10.33;;
8060;SDS011;4073;42.626;25.386;2022-08-21T00:37:31;14.00;;;10.43;;
8060;SDS011;4073;42.626;25.386;2022-08-21T00:39:56;13.33;;;10.00;;
8060;SDS011;4073;42.626;25.386;2022-08-21T00:42:22;12.87;;;10.20;;
8060;SDS011;4073;42.626;25.386;2022-08-21T00:44:48;15.47;;;10.53;;
8060;SDS011;4073;42.626;25.386;2022-08-21T00:47:15;10.87;;;9.73;;
8060;SDS011;4073;42.626;25.386;2022-08-21T00:49:42;14.50;;;10.63;;
8060;SDS011;4073;42.626;25.386;2022-08-21T00:52:10;13.50;;;10.30;;
8060;SDS011;4073;42.626;25.386;2022-08-21T00:54:42;11.63;;;9.57;;
8060;SDS011;4073;42.626;25.386;2022-08-21T00:57:19;15.57;;;10.23;;
8060;SDS011;4073;42.626;25.386;2022-08-21T00:59:49;12.43;;;10.30;;
8060;SDS011;4073;42.626;25.386;2022-08-21T01:02:19;12.17;;;10.00;;
8060;SDS011;4073;42.626;25.386;2022-08-21T01:04:45;13.00;;;10.33;;
8060;SDS011;4073;42.626;25.386;2022-08-21T01:07:12;12.37;;;10.40;;
8060;SDS011;4073;42.626;25.386;2022-08-21T01:12:08;11.43;;;10.20;;
8060;SDS011;4073;42.626;25.386;2022-08-21T01:14:34;12.73;;;11.03;;
8060;SDS011;4073;42.626;25.386;2022-08-21T01:17:00;12.57;;;10.00;;
8060;SDS011;4073;42.626;25.386;2022-08-21T01:19:28;14.97;;;9.70;;
8060;SDS011;4073;42.626;25.386;2022-08-21T01:21:55;11.43;;;10.23;;
8060;SDS011;4073;42.626;25.386;2022-08-21T01:24:21;10.03;;;9.03;;
8060;SDS011;4073;42.626;25.386;2022-08-21T01:26:46;15.17;;;10.83;;
8060;SDS011;4073;42.626;25.386;2022-08-21T01:29:25;16.20;;;10.00;;
8060;SDS011;4073;42.626;25.386;2022-08-21T01:32:03;11.87;;;9.80;;
8060;SDS011;4073;42.626;25.386;2022-08-21T01:34:31;13.50;;;9.90;;
8060;SDS011;4073;42.626;25.386;2022-08-21T01:36:58;13.67;;;11.03;;
8060;SDS011;4073;42.626;25.386;2022-08-21T01:39:24;12.33;;;9.70;;
8060;SDS011;4073;42.626;25.386;2022-08-21T01:41:49;11.90;;;10.40;;
8060;SDS011;4073;42.626;25.386;2022-08-21T01:44:15;13.80;;;11.00;;
8060;SDS011;4073;42.626;25.386;2022-08-21T01:46:40;16.00;;;10.87;;
8060;SDS011;4073;42.626;25.386;2022-08-21T01:49:06;12.43;;;11.13;;
8060;SDS011;4073;42.626;25.386;2022-08-21T01:51:32;18.37;;;11.80;;
8060;SDS011;4073;42.626;25.386;2022-08-21T01:53:57;12.13;;;10.53;;
8060;SDS011;4073;42.626;25.386;2022-08-21T01:56:24;15.90;;;11.93;;
8060;SDS011;4073;42.626;25.386;2022-08-21T01:58:51;13.87;;;11.50;;
8060;SDS011;4073;42.626;25.386;2022-08-21T02:01:16;15.27;;;11.57;;
8060;SDS011;4073;42.626;25.386;2022-08-21T02:03:41;13.37;;;11.77;;
8060;SDS011;4073;42.626;25.386;2022-08-21T02:06:11;14.83;;;11.37;;
8060;SDS011;4073;42.626;25.386;2022-08-21T02:08:38;12.33;;;11.03;;
8060;SDS011;4073;42.626;25.386;2022-08-21T02:11:04;12.97;;;11.00;;
8060;SDS011;4073;42.626;25.386;2022-08-21T02:13:29;14.87;;;11.30;;
8060;SDS011;4073;42.626;25.386;2022-08-21T02:15:55;12.40;;;11.07;;
8060;SDS011;4073;42.626;25.386;2022-08-21T02:18:20;12.03;;;10.83;;
8060;SDS011;4073;42.626;25.386;2022-08-21T02:20:47;12.93;;;10.43;;
8060;SDS011;4073;42.626;25.386;2022-08-21T02:23:14;12.50;;;10.87;;
8060;SDS011;4073;42.626;25.386;2022-08-21T02:25:40;12.53;;;10.60;;
8060;SDS011;4073;42.626;25.386;2022-08-21T02:28:07;12.13;;;10.67;;
8060;SDS011;4073;42.626;25.386;2022-08-21T02:30:36;12.07;;;9.53;;
8060;SDS011;4073;42.626;25.386;2022-08-21T02:33:04;14.53;;;10.07;;
8060;SDS011;4073;42.626;25.386;2022-08-21T02:35:31;12.50;;;10.60;;
8060;SDS011;4073;42.626;25.386;2022-08-21T02:37:58;10.57;;;9.43;;
8060;SDS011;4073;42.626;25.386;2022-08-21T02:40:29;15.13;;;10.10;;
8060;SDS011;4073;42.626;25.386;2022-08-21T02:42:57;13.30;;;10.83;;
8060;SDS011;4073;42.626;25.386;2022-08-21T02:45:24;11.70;;;10.50;;
8060;SDS011;4073;42.626;25.386;2022-08-21T02:47:53;12.33;;;10.37;;
8060;SDS011;4073;42.626;25.386;2022-08-21T02:50:25;13.53;;;10.37;;
8060;SDS011;4073;42.626;25.386;2022-08-21T02:52:52;11.50;;;10.33;;
8060;SDS011;4073;42.626;25.386;2022-08-21T02:55:25;11.33;;;10.17;;
8060;SDS011;4073;42.626;25.386;2022-08-21T02:57:52;11.77;;;10.57;;
8060;SDS011;4073;42.626;25.386;2022-08-21T03:00:20;12.67;;;9.83;;
8060;SDS011;4073;42.626;25.386;2022-08-21T03:02:48;14.60;;;9.43;;
8060;SDS011;4073;42.626;25.386;2022-08-21T03:05:14;10.20;;;9.13;;
8060;SDS011;4073;42.626;25.386;2022-08-21T03:07:41;11.03;;;9.20;;
8060;SDS011;4073;42.626;25.386;2022-08-21T03:10:08;10.50;;;9.50;;
8060;SDS011;4073;42.626;25.386;2022-08-21T03:12:34;12.67;;;9.03;;
8060;SDS011;4073;42.626;25.386;2022-08-21T03:15:03;13.23;;;9.10;;
8060;SDS011;4073;42.626;25.386;2022-08-21T03:17:31;10.83;;;9.33;;
8060;SDS011;4073;42.626;25.386;2022-08-21T03:19:57;10.20;;;9.20;;
8060;SDS011;4073;42.626;25.386;2022-08-21T03:22:24;10.13;;;9.07;;
8060;SDS011;4073;42.626;25.386;2022-08-21T03:24:50;10.33;;;9.20;;
8060;SDS011;4073;42.626;25.386;2022-08-21T03:27:16;13.97;;;9.70;;
8060;SDS011;4073;42.626;25.386;2022-08-21T03:29:42;14.77;;;9.43;;
8060;SDS011;4073;42.626;25.386;2022-08-21T03:32:07;14.73;;;10.10;;
8060;SDS011;4073;42.626;25.386;2022-08-21T03:34:37;13.77;;;9.97;;
8060;SDS011;4073;42.626;25.386;2022-08-21T03:37:04;11.53;;;10.33;;
8060;SDS011;4073;42.626;25.386;2022-08-21T03:39:31;13.13;;;10.53;;
8060;SDS011;4073;42.626;25.386;2022-08-21T03:41:57;13.83;;;9.07;;
8060;SDS011;4073;42.626;25.386;2022-08-21T03:44:22;18.40;;;9.73;;
8060;SDS011;4073;42.626;25.386;2022-08-21T03:46:48;11.37;;;8.77;;
8060;SDS011;4073;42.626;25.386;2022-08-21T03:49:14;10.27;;;9.27;;
8060;SDS011;4073;42.626;25.386;2022-08-21T03:51:40;9.53;;;8.53;;
8060;SDS011;4073;42.626;25.386;2022-08-21T03:54:06;12.67;;;9.43;;
8060;SDS011;4073;42.626;25.386;2022-08-21T03:56:31;14.77;;;9.67;;
8060;SDS011;4073;42.626;25.386;2022-08-21T03:58:57;13.30;;;10.03;;
8060;SDS011;4073;42.626;25.386;2022-08-21T04:01:22;12.07;;;9.40;;
8060;SDS011;4073;42.626;25.386;2022-08-21T04:03:48;13.23;;;9.63;;
8060;SDS011;4073;42.626;25.386;2022-08-21T04:06:13;10.37;;;9.23;;
8060;SDS011;4073;42.626;25.386;2022-08-21T04:08:39;12.57;;;8.20;;
8060;SDS011;4073;42.626;25.386;2022-08-21T04:11:08;11.13;;;8.00;;
8060;SDS011;4073;42.626;25.386;2022-08-21T04:13:35;9.73;;;8.17;;
8060;SDS011;4073;42.626;25.386;2022-08-21T04:16:01;10.60;;;7.30;;
8060;SDS011;4073;42.626;25.386;2022-08-21T04:18:26;12.97;;;7.67;;
8060;SDS011;4073;42.626;25.386;2022-08-21T04:20:52;8.40;;;6.90;;
8060;SDS011;4073;42.626;25.386;2022-08-21T04:23:19;7.30;;;6.27;;
8060;SDS011;4073;42.626;25.386;2022-08-21T04:25:46;12.33;;;6.47;;
8060;SDS011;4073;42.626;25.386;2022-08-21T04:28:11;7.20;;;5.80;;
8060;SDS011;4073;42.626;25.386;2022-08-21T04:30:36;10.60;;;6.87;;
8060;SDS011;4073;42.626;25.386;2022-08-21T04:33:02;8.57;;;6.63;;
8060;SDS011;4073;42.626;25.386;2022-08-21T04:35:28;10.60;;;6.50;;
8060;SDS011;4073;42.626;25.386;2022-08-21T04:37:55;10.10;;;5.77;;
8060;SDS011;4073;42.626;25.386;2022-08-21T04:40:21;11.13;;;5.70;;
8060;SDS011;4073;42.626;25.386;2022-08-21T04:43:01;8.03;;;5.43;;
8060;SDS011;4073;42.626;25.386;2022-08-21T04:45:39;8.33;;;5.70;;
8060;SDS011;4073;42.626;25.386;2022-08-21T04:48:10;8.30;;;5.10;;
8060;SDS011;4073;42.626;25.386;2022-08-21T04:50:41;6.20;;;4.67;;
8060;SDS011;4073;42.626;25.386;2022-08-21T04:53:17;7.63;;;5.63;;
8060;SDS011;4073;42.626;25.386;2022-08-21T04:55:45;7.63;;;5.20;;
8060;SDS011;4073;42.626;25.386;2022-08-21T04:58:13;8.10;;;5.67;;
8060;SDS011;4073;42.626;25.386;2022-08-21T05:00:42;9.90;;;5.40;;
8060;SDS011;4073;42.626;25.386;2022-08-21T05:03:09;7.70;;;6.53;;
8060;SDS011;4073;42.626;25.386;2022-08-21T05:05:36;15.70;;;6.30;;
8060;SDS011;4073;42.626;25.386;2022-08-21T05:08:02;9.47;;;5.57;;
8060;SDS011;4073;42.626;25.386;2022-08-21T05:13:12;10.87;;;5.20;;
8060;SDS011;4073;42.626;25.386;2022-08-21T05:15:39;9.37;;;4.87;;
8060;SDS011;4073;42.626;25.386;2022-08-21T05:18:05;8.53;;;4.83;;
8060;SDS011;4073;42.626;25.386;2022-08-21T05:20:31;8.50;;;5.47;;
8060;SDS011;4073;42.626;25.386;2022-08-21T05:22:59;8.10;;;5.20;;
8060;SDS011;4073;42.626;25.386;2022-08-21T05:25:25;6.97;;;5.07;;
8060;SDS011;4073;42.626;25.386;2022-08-21T05:27:51;5.50;;;4.63;;
8060;SDS011;4073;42.626;25.386;2022-08-21T05:30:17;6.40;;;4.73;;
8060;SDS011;4073;42.626;25.386;2022-08-21T05:32:42;10.10;;;5.27;;
8060;SDS011;4073;42.626;25.386;2022-08-21T05:35:08;9.47;;;5.10;;
8060;SDS011;4073;42.626;25.386;2022-08-21T05:37:34;8.10;;;4.57;;
8060;SDS011;4073;42.626;25.386;2022-08-21T05:40:00;9.93;;;4.93;;
8060;SDS011;4073;42.626;25.386;2022-08-21T05:42:26;6.77;;;4.80;;
8060;SDS011;4073;42.626;25.386;2022-08-21T05:44:53;9.10;;;5.00;;
8060;SDS011;4073;42.626;25.386;2022-08-21T05:47:18;7.63;;;5.60;;
8060;SDS011;4073;42.626;25.386;2022-08-21T05:49:44;16.63;;;6.93;;
8060;SDS011;4073;42.626;25.386;2022-08-21T05:52:09;10.67;;;6.43;;
8060;SDS011;4073;42.626;25.386;2022-08-21T05:54:36;7.60;;;5.77;;
8060;SDS011;4073;42.626;25.386;2022-08-21T05:57:01;10.63;;;6.17;;
8060;SDS011;4073;42.626;25.386;2022-08-21T05:59:27;8.63;;;5.47;;
8060;SDS011;4073;42.626;25.386;2022-08-21T06:01:53;11.03;;;6.03;;
8060;SDS011;4073;42.626;25.386;2022-08-21T06:04:18;11.13;;;5.63;;
8060;SDS011;4073;42.626;25.386;2022-08-21T06:06:44;8.13;;;5.80;;
8060;SDS011;4073;42.626;25.386;2022-08-21T06:09:09;10.90;;;6.30;;
8060;SDS011;4073;42.626;25.386;2022-08-21T06:11:35;8.13;;;5.93;;
8060;SDS011;4073;42.626;25.386;2022-08-21T06:14:00;8.47;;;5.97;;
8060;SDS011;4073;42.626;25.386;2022-08-21T06:16:26;12.40;;;5.80;;
8060;SDS011;4073;42.626;25.386;2022-08-21T06:18:53;8.57;;;4.70;;
8060;SDS011;4073;42.626;25.386;2022-08-21T06:21:18;8.30;;;5.43;;
8060;SDS011;4073;42.626;25.386;2022-08-21T06:23:44;6.77;;;4.77;;
8060;SDS011;4073;42.626;25.386;2022-08-21T06:26:11;7.57;;;4.70;;
8060;SDS011;4073;42.626;25.386;2022-08-21T06:28:38;9.07;;;4.93;;
8060;SDS011;4073;42.626;25.386;2022-08-21T06:31:12;10.13;;;4.73;;
8060;SDS011;4073;42.626;25.386;2022-08-21T06:33:41;6.07;;;5.00;;
8060;SDS011;4073;42.626;25.386;2022-08-21T06:36:07;8.13;;;5.00;;
8060;SDS011;4073;42.626;25.386;2022-08-21T06:38:34;7.27;;;4.67;;
8060;SDS011;4073;42.626;25.386;2022-08-21T06:41:00;11.93;;;5.27;;
8060;SDS011;4073;42.626;25.386;2022-08-21T06:43:25;9.47;;;5.50;;
8060;SDS011;4073;42.626;25.386;2022-08-21T06:45:51;8.47;;;5.17;;
8060;SDS011;4073;42.626;25.386;2022-08-21T06:48:16;8.37;;;5.37;;
8060;SDS011;4073;42.626;25.386;2022-08-21T06:50:41;8.13;;;5.73;;
8060;SDS011;4073;42.626;25.386;2022-08-21T06:53:09;8.50;;;5.30;;
8060;SDS011;4073;42.626;25.386;2022-08-21T06:55:38;8.33;;;5.60;;
8060;SDS011;4073;42.626;25.386;2022-08-21T06:58:04;6.53;;;5.60;;
8060;SDS011;4073;42.626;25.386;2022-08-21T07:00:30;7.03;;;6.33;;
8060;SDS011;4073;42.626;25.386;2022-08-21T07:02:56;8.23;;;5.53;;
8060;SDS011;4073;42.626;25.386;2022-08-21T07:05:24;6.53;;;5.47;;
8060;SDS011;4073;42.626;25.386;2022-08-21T07:07:51;11.03;;;6.00;;
8060;SDS011;4073;42.626;25.386;2022-08-21T07:10:16;7.23;;;6.00;;
8060;SDS011;4073;42.626;25.386;2022-08-21T07:12:42;8.57;;;6.50;;
8060;SDS011;4073;42.626;25.386;2022-08-21T07:15:07;9.57;;;6.00;;
8060;SDS011;4073;42.626;25.386;2022-08-21T07:17:33;9.97;;;5.90;;
8060;SDS011;4073;42.626;25.386;2022-08-21T07:19:59;10.43;;;6.30;;
8060;SDS011;4073;42.626;25.386;2022-08-21T07:22:24;6.50;;;5.80;;
8060;SDS011;4073;42.626;25.386;2022-08-21T07:24:52;7.07;;;5.97;;
8060;SDS011;4073;42.626;25.386;2022-08-21T07:27:18;7.93;;;6.27;;
8060;SDS011;4073;42.626;25.386;2022-08-21T07:29:44;8.60;;;7.17;;
8060;SDS011;4073;42.626;25.386;2022-08-21T07:32:09;11.30;;;6.97;;
8060;SDS011;4073;42.626;25.386;2022-08-21T07:34:35;8.60;;;6.33;;
8060;SDS011;4073;42.626;25.386;2022-08-21T07:37:00;9.10;;;6.37;;
8060;SDS011;4073;42.626;25.386;2022-08-21T07:39:26;7.83;;;6.20;;
8060;SDS011;4073;42.626;25.386;2022-08-21T07:41:51;8.87;;;6.80;;
8060;SDS011;4073;42.626;25.386;2022-08-21T07:44:17;7.80;;;6.40;;
8060;SDS011;4073;42.626;25.386;2022-08-21T07:46:42;8.63;;;6.57;;
8060;SDS011;4073;42.626;25.386;2022-08-21T07:49:08;10.97;;;7.27;;
8060;SDS011;4073;42.626;25.386;2022-08-21T07:51:33;9.57;;;7.30;;
8060;SDS011;4073;42.626;25.386;2022-08-21T07:53:59;9.67;;;7.70;;
8060;SDS011;4073;42.626;25.386;2022-08-21T07:56:25;11.20;;;8.10;;
8060;SDS011;4073;42.626;25.386;2022-08-21T07:58:51;8.57;;;7.27;;
8060;SDS011;4073;42.626;25.386;2022-08-21T08:01:17;12.13;;;8.30;;
8060;SDS011;4073;42.626;25.386;2022-08-21T08:03:43;12.23;;;7.73;;
8060;SDS011;4073;42.626;25.386;2022-08-21T08:06:10;10.80;;;7.53;;
8060;SDS011;4073;42.626;25.386;2022-08-21T08:08:40;13.10;;;9.00;;
8060;SDS011;4073;42.626;25.386;2022-08-21T08:11:07;8.93;;;7.80;;
8060;SDS011;4073;42.626;25.386;2022-08-21T08:13:39;8.03;;;7.20;;
8060;SDS011;4073;42.626;25.386;2022-08-21T08:16:06;11.43;;;7.30;;
8060;SDS011;4073;42.626;25.386;2022-08-21T08:18:32;12.50;;;8.63;;
8060;SDS011;4073;42.626;25.386;2022-08-21T08:20:57;12.47;;;7.17;;
8060;SDS011;4073;42.626;25.386;2022-08-21T08:23:22;8.57;;;7.67;;
8060;SDS011;4073;42.626;25.386;2022-08-21T08:25:48;10.63;;;7.60;;
8060;SDS011;4073;42.626;25.386;2022-08-21T08:28:13;10.87;;;7.73;;
8060;SDS011;4073;42.626;25.386;2022-08-21T08:30:39;12.53;;;8.40;;
8060;SDS011;4073;42.626;25.386;2022-08-21T08:33:04;22.00;;;17.93;;
8060;SDS011;4073;42.626;25.386;2022-08-21T08:35:30;39.60;;;27.20;;
8060;SDS011;4073;42.626;25.386;2022-08-21T08:37:56;22.47;;;20.17;;
8060;SDS011;4073;42.626;25.386;2022-08-21T08:40:28;11.87;;;8.43;;
8060;SDS011;4073;42.626;25.386;2022-08-21T08:42:55;10.63;;;7.80;;
8060;SDS011;4073;42.626;25.386;2022-08-21T08:45:21;10.33;;;9.30;;
8060;SDS011;4073;42.626;25.386;2022-08-21T08:47:55;23.37;;;18.33;;
8060;SDS011;4073;42.626;25.386;2022-08-21T08:50:28;15.33;;;13.87;;
8060;SDS011;4073;42.626;25.386;2022-08-21T08:53:03;12.47;;;9.53;;
8060;SDS011;4073;42.626;25.386;2022-08-21T08:57:57;12.37;;;8.33;;
8060;SDS011;4073;42.626;25.386;2022-08-21T09:00:23;11.27;;;9.70;;
8060;SDS011;4073;42.626;25.386;2022-08-21T09:02:51;9.63;;;8.27;;
8060;SDS011;4073;42.626;25.386;2022-08-21T09:05:23;14.43;;;8.70;;
8060;SDS011;4073;42.626;25.386;2022-08-21T09:24:13;9.37;;;8.40;;
8060;SDS011;4073;42.626;25.386;2022-08-21T09:29:25;13.10;;;8.60;;
8060;SDS011;4073;42.626;25.386;2022-08-21T09:31:55;11.87;;;9.40;;
8060;SDS011;4073;42.626;25.386;2022-08-21T09:34:27;9.33;;;8.27;;
8060;SDS011;4073;42.626;25.386;2022-08-21T09:36:56;10.03;;;8.67;;
8060;SDS011;4073;42.626;25.386;2022-08-21T09:39:27;12.03;;;9.17;;
8060;SDS011;4073;42.626;25.386;2022-08-21T09:41:58;9.07;;;8.20;;
8060;SDS011;4073;42.626;25.386;2022-08-21T09:44:27;13.33;;;8.00;;
8060;SDS011;4073;42.626;25.386;2022-08-21T09:46:54;8.63;;;7.00;;
8060;SDS011;4073;42.626;25.386;2022-08-21T09:49:35;7.70;;;6.80;;
8060;SDS011;4073;42.626;25.386;2022-08-21T09:52:03;8.03;;;7.33;;
8060;SDS011;4073;42.626;25.386;2022-08-21T09:54:37;7.67;;;6.93;;
8060;SDS011;4073;42.626;25.386;2022-08-21T09:59:51;7.97;;;6.80;;
8060;SDS011;4073;42.626;25.386;2022-08-21T10:04:55;7.73;;;6.77;;
8060;SDS011;4073;42.626;25.386;2022-08-21T10:07:24;7.90;;;7.10;;
8060;SDS011;4073;42.626;25.386;2022-08-21T10:10:02;10.70;;;7.37;;
8060;SDS011;4073;42.626;25.386;2022-08-21T10:12:33;8.97;;;7.17;;
8060;SDS011;4073;42.626;25.386;2022-08-21T10:15:18;9.80;;;7.40;;
8060;SDS011;4073;42.626;25.386;2022-08-21T10:18:13;9.63;;;7.30;;
8060;SDS011;4073;42.626;25.386;2022-08-21T10:23:42;9.73;;;7.57;;
8060;SDS011;4073;42.626;25.386;2022-08-21T10:26:39;8.00;;;7.20;;
8060;SDS011;4073;42.626;25.386;2022-08-21T10:29:49;8.53;;;7.03;;
8060;SDS011;4073;42.626;25.386;2022-08-21T10:32:33;8.57;;;6.63;;
8060;SDS011;4073;42.626;25.386;2022-08-21T10:35:12;10.57;;;7.33;;
8060;SDS011;4073;42.626;25.386;2022-08-21T10:40:37;7.80;;;6.43;;
8060;SDS011;4073;42.626;25.386;2022-08-21T10:46:07;12.17;;;8.13;;
8060;SDS011;4073;42.626;25.386;2022-08-21T10:48:47;9.13;;;6.97;;
8060;SDS011;4073;42.626;25.386;2022-08-21T10:54:06;7.27;;;6.57;;
8060;SDS011;4073;42.626;25.386;2022-08-21T10:56:34;8.60;;;7.00;;
8060;SDS011;4073;42.626;25.386;2022-08-21T11:07:25;8.37;;;6.80;;
8060;SDS011;4073;42.626;25.386;2022-08-21T11:09:54;9.50;;;6.40;;
8060;SDS011;4073;42.626;25.386;2022-08-21T11:12:30;8.37;;;5.73;;
8060;SDS011;4073;42.626;25.386;2022-08-21T11:15:48;7.23;;;6.17;;
8060;SDS011;4073;42.626;25.386;2022-08-21T11:17:53;11.70;;;10.33;;
8060;SDS011;4073;42.626;25.386;2022-08-21T11:21:13;11.33;;;7.97;;
8060;SDS011;4073;42.626;25.386;2022-08-21T11:23:29;13.30;;;11.53;;
8060;SDS011;4073;42.626;25.386;2022-08-21T11:26:02;11.60;;;7.30;;
8060;SDS011;4073;42.626;25.386;2022-08-21T11:28:45;9.53;;;6.10;;
8060;SDS011;4073;42.626;25.386;2022-08-21T11:37:01;4.90;;;4.43;;
8060;SDS011;4073;42.626;25.386;2022-08-21T11:39:37;8.47;;;4.60;;
8060;SDS011;4073;42.626;25.386;2022-08-21T11:42:19;4.80;;;4.40;;
8060;SDS011;4073;42.626;25.386;2022-08-21T11:48:34;5.73;;;4.97;;
8060;SDS011;4073;42.626;25.386;2022-08-21T11:51:05;6.60;;;4.87;;
8060;SDS011;4073;42.626;25.386;2022-08-21T11:53:51;5.63;;;5.10;;
8060;SDS011;4073;42.626;25.386;2022-08-21T11:56:25;6.23;;;5.10;;
8060;SDS011;4073;42.626;25.386;2022-08-21T11:58:59;5.47;;;4.40;;
8060;SDS011;4073;42.626;25.386;2022-08-21T12:01:30;4.50;;;4.10;;
8060;SDS011;4073;42.626;25.386;2022-08-21T12:04:01;5.27;;;4.60;;
8060;SDS011;4073;42.626;25.386;2022-08-21T12:06:32;5.90;;;5.07;;
8060;SDS011;4073;42.626;25.386;2022-08-21T12:09:02;7.00;;;4.73;;
8060;SDS011;4073;42.626;25.386;2022-08-21T12:11:32;4.87;;;4.17;;
8060;SDS011;4073;42.626;25.386;2022-08-21T12:14:15;9.30;;;5.30;;
8060;SDS011;4073;42.626;25.386;2022-08-21T12:16:46;5.83;;;4.70;;
8060;SDS011;4073;42.626;25.386;2022-08-21T12:19:27;5.00;;;4.50;;
8060;SDS011;4073;42.626;25.386;2022-08-21T12:24:30;9.07;;;5.67;;
8060;SDS011;4073;42.626;25.386;2022-08-21T12:27:12;5.90;;;4.90;;
8060;SDS011;4073;42.626;25.386;2022-08-21T12:30:19;6.87;;;5.00;;
8060;SDS011;4073;42.626;25.386;2022-08-21T12:32:56;6.63;;;5.80;;
8060;SDS011;4073;42.626;25.386;2022-08-21T12:35:25;6.83;;;4.70;;
8060;SDS011;4073;42.626;25.386;2022-08-21T12:37:59;7.53;;;5.67;;
8060;SDS011;4073;42.626;25.386;2022-08-21T12:40:42;7.17;;;5.00;;
8060;SDS011;4073;42.626;25.386;2022-08-21T12:43:13;4.80;;;4.40;;
8060;SDS011;4073;42.626;25.386;2022-08-21T12:45:44;7.67;;;4.33;;
8060;SDS011;4073;42.626;25.386;2022-08-21T12:48:23;7.87;;;5.27;;
8060;SDS011;4073;42.626;25.386;2022-08-21T12:50:55;4.20;;;3.53;;
8060;SDS011;4073;42.626;25.386;2022-08-21T12:53:56;4.43;;;4.03;;
8060;SDS011;4073;42.626;25.386;2022-08-21T12:56:22;5.57;;;4.50;;
8060;SDS011;4073;42.626;25.386;2022-08-21T12:58:51;5.20;;;4.80;;
8060;SDS011;4073;42.626;25.386;2022-08-21T13:01:27;6.27;;;4.90;;
8060;SDS011;4073;42.626;25.386;2022-08-21T13:03:57;8.23;;;4.93;;
8060;SDS011;4073;42.626;25.386;2022-08-21T13:06:25;5.67;;;5.10;;
8060;SDS011;4073;42.626;25.386;2022-08-21T13:08:57;6.17;;;4.80;;
8060;SDS011;4073;42.626;25.386;2022-08-21T13:11:29;6.10;;;4.87;;
8060;SDS011;4073;42.626;25.386;2022-08-21T13:13:54;5.00;;;4.27;;
8060;SDS011;4073;42.626;25.386;2022-08-21T13:16:22;6.20;;;4.97;;
8060;SDS011;4073;42.626;25.386;2022-08-21T13:19:16;4.80;;;4.30;;
8060;SDS011;4073;42.626;25.386;2022-08-21T13:21:42;5.13;;;4.60;;
8060;SDS011;4073;42.626;25.386;2022-08-21T13:24:14;5.40;;;4.80;;
8060;SDS011;4073;42.626;25.386;2022-08-21T13:26:49;5.30;;;4.70;;
8060;SDS011;4073;42.626;25.386;2022-08-21T13:29:16;8.77;;;5.33;;
8060;SDS011;4073;42.626;25.386;2022-08-21T13:31:55;6.87;;;5.20;;
8060;SDS011;4073;42.626;25.386;2022-08-21T13:34:23;6.67;;;4.80;;
8060;SDS011;4073;42.626;25.386;2022-08-21T13:36:52;6.13;;;5.07;;
8060;SDS011;4073;42.626;25.386;2022-08-21T13:39:22;8.13;;;5.30;;
8060;SDS011;4073;42.626;25.386;2022-08-21T13:41:49;5.87;;;5.30;;
8060;SDS011;4073;42.626;25.386;2022-08-21T13:44:21;5.17;;;4.70;;
8060;SDS011;4073;42.626;25.386;2022-08-21T13:46:47;6.93;;;5.20;;
8060;SDS011;4073;42.626;25.386;2022-08-21T13:49:16;7.23;;;4.67;;
8060;SDS011;4073;42.626;25.386;2022-08-21T13:51:44;5.83;;;4.90;;
8060;SDS011;4073;42.626;25.386;2022-08-21T13:57:15;6.10;;;5.50;;
8060;SDS011;4073;42.626;25.386;2022-08-21T13:59:49;5.43;;;4.93;;
8060;SDS011;4073;42.626;25.386;2022-08-21T14:04:53;6.20;;;4.93;;
8060;SDS011;4073;42.626;25.386;2022-08-21T14:07:26;5.67;;;5.17;;
8060;SDS011;4073;42.626;25.386;2022-08-21T14:10:00;5.80;;;5.30;;
8060;SDS011;4073;42.626;25.386;2022-08-21T14:12:48;6.37;;;5.67;;
8060;SDS011;4073;42.626;25.386;2022-08-21T14:15:18;6.07;;;5.47;;
8060;SDS011;4073;42.626;25.386;2022-08-21T14:17:50;5.80;;;5.20;;
8060;SDS011;4073;42.626;25.386;2022-08-21T14:20:29;5.60;;;5.00;;
8060;SDS011;4073;42.626;25.386;2022-08-21T14:22:57;5.40;;;4.90;;
8060;SDS011;4073;42.626;25.386;2022-08-21T14:32:57;6.17;;;5.57;;
8060;SDS011;4073;42.626;25.386;2022-08-21T14:35:23;9.40;;;5.93;;
8060;SDS011;4073;42.626;25.386;2022-08-21T14:37:50;6.90;;;5.33;;
8060;SDS011;4073;42.626;25.386;2022-08-21T14:40:16;6.20;;;5.60;;
8060;SDS011;4073;42.626;25.386;2022-08-21T14:42:43;7.33;;;6.03;;
8060;SDS011;4073;42.626;25.386;2022-08-21T14:45:14;9.43;;;5.40;;
8060;SDS011;4073;42.626;25.386;2022-08-21T14:47:40;6.97;;;5.43;;
8060;SDS011;4073;42.626;25.386;2022-08-21T14:50:07;8.97;;;6.17;;
8060;SDS011;4073;42.626;25.386;2022-08-21T14:52:34;10.27;;;6.40;;
8060;SDS011;4073;42.626;25.386;2022-08-21T14:55:00;6.53;;;5.93;;
8060;SDS011;4073;42.626;25.386;2022-08-21T14:57:26;7.50;;;6.77;;
8060;SDS011;4073;42.626;25.386;2022-08-21T14:59:55;7.27;;;6.23;;
8060;SDS011;4073;42.626;25.386;2022-08-21T15:02:20;7.73;;;6.50;;
8060;SDS011;4073;42.626;25.386;2022-08-21T15:04:46;10.73;;;6.00;;
8060;SDS011;4073;42.626;25.386;2022-08-21T15:07:11;6.43;;;5.80;;
8060;SDS011;4073;42.626;25.386;2022-08-21T15:09:37;6.17;;;5.63;;
8060;SDS011;4073;42.626;25.386;2022-08-21T15:12:02;10.10;;;6.50;;
8060;SDS011;4073;42.626;25.386;2022-08-21T15:14:29;7.67;;;6.17;;
8060;SDS011;4073;42.626;25.386;2022-08-21T15:16:57;6.83;;;6.23;;
8060;SDS011;4073;42.626;25.386;2022-08-21T15:19:23;12.37;;;6.63;;
8060;SDS011;4073;42.626;25.386;2022-08-21T15:21:48;8.40;;;7.50;;
8060;SDS011;4073;42.626;25.386;2022-08-21T15:24:14;7.50;;;6.70;;
8060;SDS011;4073;42.626;25.386;2022-08-21T15:26:40;12.07;;;6.80;;
8060;SDS011;4073;42.626;25.386;2022-08-21T15:29:07;10.87;;;7.13;;
8060;SDS011;4073;42.626;25.386;2022-08-21T15:31:34;8.03;;;6.67;;
8060;SDS011;4073;42.626;25.386;2022-08-21T15:34:00;8.47;;;6.23;;
8060;SDS011;4073;42.626;25.386;2022-08-21T15:36:25;10.37;;;8.00;;
8060;SDS011;4073;42.626;25.386;2022-08-21T15:38:51;10.30;;;8.27;;
8060;SDS011;4073;42.626;25.386;2022-08-21T15:41:16;8.00;;;7.23;;
8060;SDS011;4073;42.626;25.386;2022-08-21T15:43:47;11.10;;;7.43;;
8060;SDS011;4073;42.626;25.386;2022-08-21T15:46:15;12.10;;;8.23;;
8060;SDS011;4073;42.626;25.386;2022-08-21T15:48:42;8.40;;;7.53;;
8060;SDS011;4073;42.626;25.386;2022-08-21T15:51:11;9.10;;;7.20;;
8060;SDS011;4073;42.626;25.386;2022-08-21T15:53:38;8.00;;;7.20;;
8060;SDS011;4073;42.626;25.386;2022-08-21T15:56:26;9.83;;;8.80;;
8060;SDS011;4073;42.626;25.386;2022-08-21T15:59:14;12.13;;;8.00;;
8060;SDS011;4073;42.626;25.386;2022-08-21T16:01:43;9.30;;;7.60;;
8060;SDS011;4073;42.626;25.386;2022-08-21T16:04:10;9.53;;;8.00;;
8060;SDS011;4073;42.626;25.386;2022-08-21T16:06:41;10.70;;;8.43;;
8060;SDS011;4073;42.626;25.386;2022-08-21T16:09:06;11.53;;;9.33;;
8060;SDS011;4073;42.626;25.386;2022-08-21T16:11:32;12.63;;;9.00;;
8060;SDS011;4073;42.626;25.386;2022-08-21T16:13:57;9.40;;;8.50;;
8060;SDS011;4073;42.626;25.386;2022-08-21T16:16:23;12.77;;;9.17;;
8060;SDS011;4073;42.626;25.386;2022-08-21T16:18:49;11.30;;;9.40;;
8060;SDS011;4073;42.626;25.386;2022-08-21T16:21:17;11.23;;;10.03;;